sensor_id;sensor_type;location;lat;lon;timestamp;P1;durP1;ratioP1;P2;durP2;ratioP2
12838;SDS011;6486;51.034;5.262;2022-08-04T00:02:09;0.60;;;0.60;;
12838;SDS011;6486;51.034;5.262;2022-08-04T00:04:44;2.80;;;0.87;;
12838;SDS011;6486;51.034;5.262;2022-08-04T00:07:18;4.70;;;1.30;;
12838;SDS011;6486;51.034;5.262;2022-08-04T00:10:03;4.73;;;0.90;;
12838;SDS011;6486;51.034;5.262;2022-08-04T00:12:31;2.33;;;0.80;;
12838;SDS011;6486;51.034;5.262;2022-08-04T00:15:18;0.97;;;0.70;;
12838;SDS011;6486;51.034;5.262;2022-08-04T00:17:54;0.73;;;0.67;;
12838;SDS011;6486;51.034;5.262;2022-08-04T00:20:32;0.67;;;0.67;;
12838;SDS011;6486;51.034;5.262;2022-08-04T00:22:59;0.70;;;0.60;;
12838;SDS011;6486;51.034;5.262;2022-08-04T00:25:26;2.57;;;1.00;;
12838;SDS011;6486;51.034;5.262;2022-08-04T00:27:53;0.43;;;0.43;;
12838;SDS011;6486;51.034;5.262;2022-08-04T00:30:19;0.73;;;0.73;;
12838;SDS011;6486;51.034;5.262;2022-08-04T00:32:45;3.63;;;0.80;;
12838;SDS011;6486;51.034;5.262;2022-08-04T00:35:15;0.70;;;0.70;;
12838;SDS011;6486;51.034;5.262;2022-08-04T00:37:42;1.77;;;1.10;;
12838;SDS011;6486;51.034;5.262;2022-08-04T00:40:52;1.63;;;0.93;;
12838;SDS011;6486;51.034;5.262;2022-08-04T00:53:54;0.73;;;0.73;;
12838;SDS011;6486;51.034;5.262;2022-08-04T00:59:45;0.73;;;0.73;;
12838;SDS011;6486;51.034;5.262;2022-08-04T01:02:22;0.73;;;0.73;;
12838;SDS011;6486;51.034;5.262;2022-08-04T01:05:02;4.07;;;0.80;;
12838;SDS011;6486;51.034;5.262;2022-08-04T01:16:01;1.13;;;0.80;;
12838;SDS011;6486;51.034;5.262;2022-08-04T01:29:08;1.57;;;1.00;;
12838;SDS011;6486;51.034;5.262;2022-08-04T01:34:18;1.13;;;0.80;;
12838;SDS011;6486;51.034;5.262;2022-08-04T01:36:46;0.97;;;0.87;;
12838;SDS011;6486;51.034;5.262;2022-08-04T01:39:21;0.93;;;0.70;;
12838;SDS011;6486;51.034;5.262;2022-08-04T01:42:05;2.40;;;0.77;;
12838;SDS011;6486;51.034;5.262;2022-08-04T01:44:32;1.50;;;0.87;;
12838;SDS011;6486;51.034;5.262;2022-08-04T01:47:01;1.10;;;1.00;;
12838;SDS011;6486;51.034;5.262;2022-08-04T01:49:30;1.10;;;0.50;;
12838;SDS011;6486;51.034;5.262;2022-08-04T01:51:57;3.13;;;0.83;;
12838;SDS011;6486;51.034;5.262;2022-08-04T01:54:24;0.77;;;0.70;;
12838;SDS011;6486;51.034;5.262;2022-08-04T01:56:51;1.00;;;0.93;;
12838;SDS011;6486;51.034;5.262;2022-08-04T01:59:19;3.87;;;0.90;;
12838;SDS011;6486;51.034;5.262;2022-08-04T02:01:46;4.07;;;1.07;;
12838;SDS011;6486;51.034;5.262;2022-08-04T02:04:13;1.90;;;0.97;;
12838;SDS011;6486;51.034;5.262;2022-08-04T02:06:51;1.13;;;0.57;;
12838;SDS011;6486;51.034;5.262;2022-08-04T02:09:45;2.60;;;0.70;;
12838;SDS011;6486;51.034;5.262;2022-08-04T02:18:21;0.53;;;0.53;;
12838;SDS011;6486;51.034;5.262;2022-08-04T02:20:51;6.60;;;1.00;;
12838;SDS011;6486;51.034;5.262;2022-08-04T02:25:55;0.80;;;0.80;;
12838;SDS011;6486;51.034;5.262;2022-08-04T02:33:49;0.60;;;0.60;;
12838;SDS011;6486;51.034;5.262;2022-08-04T02:36:22;0.83;;;0.60;;
12838;SDS011;6486;51.034;5.262;2022-08-04T02:38:54;5.90;;;1.10;;
12838;SDS011;6486;51.034;5.262;2022-08-04T02:41:23;1.53;;;1.03;;
12838;SDS011;6486;51.034;5.262;2022-08-04T02:43:51;1.73;;;0.60;;
12838;SDS011;6486;51.034;5.262;2022-08-04T02:46:21;2.20;;;0.80;;
12838;SDS011;6486;51.034;5.262;2022-08-04T02:48:47;1.00;;;0.80;;
12838;SDS011;6486;51.034;5.262;2022-08-04T02:51:16;2.07;;;0.80;;
12838;SDS011;6486;51.034;5.262;2022-08-04T02:53:46;1.10;;;0.70;;
12838;SDS011;6486;51.034;5.262;2022-08-04T02:56:14;4.10;;;1.30;;
12838;SDS011;6486;51.034;5.262;2022-08-04T02:58:45;2.03;;;0.83;;
12838;SDS011;6486;51.034;5.262;2022-08-04T03:01:15;1.37;;;1.10;;
12838;SDS011;6486;51.034;5.262;2022-08-04T03:03:52;0.83;;;0.67;;
12838;SDS011;6486;51.034;5.262;2022-08-04T03:23:28;4.73;;;1.70;;
12838;SDS011;6486;51.034;5.262;2022-08-04T03:50:55;7.33;;;1.63;;
12838;SDS011;6486;51.034;5.262;2022-08-04T03:56:42;2.33;;;1.00;;
12838;SDS011;6486;51.034;5.262;2022-08-04T03:59:31;1.07;;;1.07;;
12838;SDS011;6486;51.034;5.262;2022-08-04T04:14:00;4.30;;;1.63;;
12838;SDS011;6486;51.034;5.262;2022-08-04T04:19:50;1.30;;;1.10;;
12838;SDS011;6486;51.034;5.262;2022-08-04T04:25:20;1.97;;;0.90;;
12838;SDS011;6486;51.034;5.262;2022-08-04T04:35:58;1.93;;;0.93;;
12838;SDS011;6486;51.034;5.262;2022-08-04T04:38:39;1.93;;;1.07;;
12838;SDS011;6486;51.034;5.262;2022-08-04T04:49:48;4.90;;;1.20;;
12838;SDS011;6486;51.034;5.262;2022-08-04T04:52:29;0.73;;;0.53;;
12838;SDS011;6486;51.034;5.262;2022-08-04T04:57:49;2.43;;;1.20;;
12838;SDS011;6486;51.034;5.262;2022-08-04T05:00:16;10.70;;;1.10;;
12838;SDS011;6486;51.034;5.262;2022-08-04T05:08:50;0.80;;;0.80;;
12838;SDS011;6486;51.034;5.262;2022-08-04T05:14:03;2.50;;;0.90;;
12838;SDS011;6486;51.034;5.262;2022-08-04T05:16:36;2.40;;;1.33;;
12838;SDS011;6486;51.034;5.262;2022-08-04T05:22:01;6.73;;;1.47;;
12838;SDS011;6486;51.034;5.262;2022-08-04T05:24:34;1.10;;;0.83;;
12838;SDS011;6486;51.034;5.262;2022-08-04T05:27:04;2.33;;;1.27;;
12838;SDS011;6486;51.034;5.262;2022-08-04T05:29:40;4.73;;;1.00;;
12838;SDS011;6486;51.034;5.262;2022-08-04T05:32:22;1.30;;;1.20;;
12838;SDS011;6486;51.034;5.262;2022-08-04T05:34:54;1.27;;;0.60;;
12838;SDS011;6486;51.034;5.262;2022-08-04T05:37:45;3.30;;;0.90;;
12838;SDS011;6486;51.034;5.262;2022-08-04T05:40:14;1.30;;;1.20;;
12838;SDS011;6486;51.034;5.262;2022-08-04T05:42:42;1.70;;;1.30;;
12838;SDS011;6486;51.034;5.262;2022-08-04T05:45:08;1.90;;;1.00;;
12838;SDS011;6486;51.034;5.262;2022-08-04T05:47:35;1.10;;;0.87;;
12838;SDS011;6486;51.034;5.262;2022-08-04T05:50:01;6.43;;;1.60;;
12838;SDS011;6486;51.034;5.262;2022-08-04T05:52:29;1.47;;;0.93;;
12838;SDS011;6486;51.034;5.262;2022-08-04T05:54:57;1.40;;;1.10;;
12838;SDS011;6486;51.034;5.262;2022-08-04T05:57:24;2.70;;;1.80;;
12838;SDS011;6486;51.034;5.262;2022-08-04T05:59:50;1.10;;;0.90;;
12838;SDS011;6486;51.034;5.262;2022-08-04T06:02:17;1.20;;;1.10;;
12838;SDS011;6486;51.034;5.262;2022-08-04T06:04:46;1.27;;;0.90;;
12838;SDS011;6486;51.034;5.262;2022-08-04T06:07:14;1.30;;;1.20;;
12838;SDS011;6486;51.034;5.262;2022-08-04T06:09:40;3.57;;;1.03;;
12838;SDS011;6486;51.034;5.262;2022-08-04T06:12:08;0.87;;;0.87;;
12838;SDS011;6486;51.034;5.262;2022-08-04T06:14:46;6.27;;;0.90;;
12838;SDS011;6486;51.034;5.262;2022-08-04T06:17:20;3.60;;;1.23;;
12838;SDS011;6486;51.034;5.262;2022-08-04T06:19:49;0.70;;;0.70;;
12838;SDS011;6486;51.034;5.262;2022-08-04T06:22:17;7.30;;;0.80;;
12838;SDS011;6486;51.034;5.262;2022-08-04T06:24:45;6.17;;;1.17;;
12838;SDS011;6486;51.034;5.262;2022-08-04T06:27:14;6.20;;;1.07;;
12838;SDS011;6486;51.034;5.262;2022-08-04T06:29:41;1.30;;;1.20;;
12838;SDS011;6486;51.034;5.262;2022-08-04T06:32:08;2.27;;;1.17;;
12838;SDS011;6486;51.034;5.262;2022-08-04T06:34:48;5.70;;;2.10;;
12838;SDS011;6486;51.034;5.262;2022-08-04T06:37:25;1.90;;;1.37;;
12838;SDS011;6486;51.034;5.262;2022-08-04T06:39:52;1.53;;;1.33;;
12838;SDS011;6486;51.034;5.262;2022-08-04T06:42:21;3.90;;;1.07;;
12838;SDS011;6486;51.034;5.262;2022-08-04T06:44:50;1.53;;;1.27;;
12838;SDS011;6486;51.034;5.262;2022-08-04T06:47:19;1.70;;;1.10;;
12838;SDS011;6486;51.034;5.262;2022-08-04T06:49:47;2.57;;;1.40;;
12838;SDS011;6486;51.034;5.262;2022-08-04T06:52:15;3.93;;;1.40;;
12838;SDS011;6486;51.034;5.262;2022-08-04T06:54:43;4.17;;;1.73;;
12838;SDS011;6486;51.034;5.262;2022-08-04T06:57:10;3.03;;;2.00;;
12838;SDS011;6486;51.034;5.262;2022-08-04T06:59:40;2.60;;;1.60;;
12838;SDS011;6486;51.034;5.262;2022-08-04T07:02:13;4.13;;;1.10;;
12838;SDS011;6486;51.034;5.262;2022-08-04T07:04:43;2.53;;;1.87;;
12838;SDS011;6486;51.034;5.262;2022-08-04T07:07:10;4.53;;;1.47;;
12838;SDS011;6486;51.034;5.262;2022-08-04T07:09:37;5.13;;;1.27;;
12838;SDS011;6486;51.034;5.262;2022-08-04T07:12:04;3.40;;;1.50;;
12838;SDS011;6486;51.034;5.262;2022-08-04T07:14:31;3.70;;;1.47;;
12838;SDS011;6486;51.034;5.262;2022-08-04T07:17:00;1.70;;;1.47;;
12838;SDS011;6486;51.034;5.262;2022-08-04T07:19:29;4.73;;;1.33;;
12838;SDS011;6486;51.034;5.262;2022-08-04T07:21:57;4.37;;;2.33;;
12838;SDS011;6486;51.034;5.262;2022-08-04T07:24:31;4.60;;;1.57;;
12838;SDS011;6486;51.034;5.262;2022-08-04T07:26:57;2.10;;;1.90;;
12838;SDS011;6486;51.034;5.262;2022-08-04T07:29:23;2.77;;;1.63;;
12838;SDS011;6486;51.034;5.262;2022-08-04T07:31:50;5.53;;;1.87;;
12838;SDS011;6486;51.034;5.262;2022-08-04T07:34:18;3.47;;;2.50;;
12838;SDS011;6486;51.034;5.262;2022-08-04T07:36:44;4.90;;;2.23;;
12838;SDS011;6486;51.034;5.262;2022-08-04T07:39:10;2.80;;;2.47;;
12838;SDS011;6486;51.034;5.262;2022-08-04T07:41:36;6.43;;;2.27;;
12838;SDS011;6486;51.034;5.262;2022-08-04T07:44:02;2.80;;;2.23;;
12838;SDS011;6486;51.034;5.262;2022-08-04T07:46:28;6.57;;;2.67;;
12838;SDS011;6486;51.034;5.262;2022-08-04T07:48:54;12.30;;;3.20;;
12838;SDS011;6486;51.034;5.262;2022-08-04T07:51:20;3.40;;;2.43;;
12838;SDS011;6486;51.034;5.262;2022-08-04T07:53:47;3.00;;;2.77;;
12838;SDS011;6486;51.034;5.262;2022-08-04T07:56:14;5.20;;;2.77;;
12838;SDS011;6486;51.034;5.262;2022-08-04T07:58:40;2.53;;;1.90;;
12838;SDS011;6486;51.034;5.262;2022-08-04T08:01:06;7.53;;;2.47;;
12838;SDS011;6486;51.034;5.262;2022-08-04T08:03:33;1.93;;;1.83;;
12838;SDS011;6486;51.034;5.262;2022-08-04T08:06:00;2.30;;;1.53;;
12838;SDS011;6486;51.034;5.262;2022-08-04T08:08:25;5.67;;;1.63;;
12838;SDS011;6486;51.034;5.262;2022-08-04T08:10:51;1.80;;;1.50;;
12838;SDS011;6486;51.034;5.262;2022-08-04T08:13:17;1.83;;;1.73;;
12838;SDS011;6486;51.034;5.262;2022-08-04T08:15:44;3.70;;;2.47;;
12838;SDS011;6486;51.034;5.262;2022-08-04T08:18:11;4.47;;;1.93;;
12838;SDS011;6486;51.034;5.262;2022-08-04T08:20:37;2.75;;;1.92;;
12838;SDS011;6486;51.034;5.262;2022-08-04T08:23:03;8.50;;;2.53;;
12838;SDS011;6486;51.034;5.262;2022-08-04T08:25:32;3.97;;;1.40;;
12838;SDS011;6486;51.034;5.262;2022-08-04T08:27:58;1.73;;;1.03;;
12838;SDS011;6486;51.034;5.262;2022-08-04T08:30:26;2.55;;;1.80;;
12838;SDS011;6486;51.034;5.262;2022-08-04T08:32:52;3.40;;;1.92;;
12838;SDS011;6486;51.034;5.262;2022-08-04T08:35:17;16.92;;;2.13;;
12838;SDS011;6486;51.034;5.262;2022-08-04T08:37:46;5.68;;;1.88;;
12838;SDS011;6486;51.034;5.262;2022-08-04T08:40:31;1.75;;;1.08;;
12838;SDS011;6486;51.034;5.262;2022-08-04T09:05:53;2.65;;;0.80;;
12838;SDS011;6486;51.034;5.262;2022-08-04T09:08:36;12.90;;;1.00;;
12838;SDS011;6486;51.034;5.262;2022-08-04T09:11:07;3.92;;;0.70;;
12838;SDS011;6486;51.034;5.262;2022-08-04T09:13:42;1.20;;;0.97;;
12838;SDS011;6486;51.034;5.262;2022-08-04T09:16:20;3.13;;;1.27;;
12838;SDS011;6486;51.034;5.262;2022-08-04T09:21:47;3.23;;;1.07;;
12838;SDS011;6486;51.034;5.262;2022-08-04T09:27:04;7.07;;;0.60;;
12838;SDS011;6486;51.034;5.262;2022-08-04T09:29:46;0.70;;;0.70;;
12838;SDS011;6486;51.034;5.262;2022-08-04T09:46:12;2.53;;;0.90;;
12838;SDS011;6486;51.034;5.262;2022-08-04T09:57:21;1.80;;;0.53;;
12838;SDS011;6486;51.034;5.262;2022-08-04T10:00:09;5.87;;;0.93;;
12838;SDS011;6486;51.034;5.262;2022-08-04T10:02:46;0.90;;;0.73;;
12838;SDS011;6486;51.034;5.262;2022-08-04T10:05:20;2.73;;;0.90;;
12838;SDS011;6486;51.034;5.262;2022-08-04T10:18:50;2.67;;;0.97;;
12838;SDS011;6486;51.034;5.262;2022-08-04T10:29:47;0.90;;;0.40;;
12838;SDS011;6486;51.034;5.262;2022-08-04T10:32:15;2.87;;;0.77;;
12838;SDS011;6486;51.034;5.262;2022-08-04T10:35:20;10.43;;;1.17;;
12838;SDS011;6486;51.034;5.262;2022-08-04T10:40:44;2.80;;;0.93;;
12838;SDS011;6486;51.034;5.262;2022-08-04T10:48:48;1.67;;;1.00;;
12838;SDS011;6486;51.034;5.262;2022-08-04T10:51:32;4.23;;;0.67;;
12838;SDS011;6486;51.034;5.262;2022-08-04T10:54:28;2.35;;;0.70;;
12838;SDS011;6486;51.034;5.262;2022-08-04T10:57:10;0.97;;;0.40;;
12838;SDS011;6486;51.034;5.262;2022-08-04T10:59:51;0.47;;;0.47;;
12838;SDS011;6486;51.034;5.262;2022-08-04T11:02:26;4.60;;;0.87;;
12838;SDS011;6486;51.034;5.262;2022-08-04T11:05:03;3.53;;;0.63;;
12838;SDS011;6486;51.034;5.262;2022-08-04T11:07:36;3.17;;;0.70;;
12838;SDS011;6486;51.034;5.262;2022-08-04T11:10:05;4.83;;;1.40;;
12838;SDS011;6486;51.034;5.262;2022-08-04T11:12:31;1.23;;;0.70;;
12838;SDS011;6486;51.034;5.262;2022-08-04T11:15:01;6.07;;;0.90;;
12838;SDS011;6486;51.034;5.262;2022-08-04T11:17:40;1.08;;;0.70;;
12838;SDS011;6486;51.034;5.262;2022-08-04T11:20:22;2.57;;;0.67;;
12838;SDS011;6486;51.034;5.262;2022-08-04T11:23:11;5.68;;;0.93;;
12838;SDS011;6486;51.034;5.262;2022-08-04T11:28:37;2.05;;;1.13;;
12838;SDS011;6486;51.034;5.262;2022-08-04T11:31:20;2.20;;;0.70;;
12838;SDS011;6486;51.034;5.262;2022-08-04T11:34:03;1.67;;;0.75;;
12838;SDS011;6486;51.034;5.262;2022-08-04T11:37:22;1.05;;;0.90;;
12838;SDS011;6486;51.034;5.262;2022-08-04T11:41:06;1.88;;;0.85;;
12838;SDS011;6486;51.034;5.262;2022-08-04T11:43:03;17.30;;;1.27;;
12838;SDS011;6486;51.034;5.262;2022-08-04T11:45:35;0.80;;;0.63;;
12838;SDS011;6486;51.034;5.262;2022-08-04T11:48:06;1.85;;;0.65;;
12838;SDS011;6486;51.034;5.262;2022-08-04T11:50:49;1.50;;;0.90;;
12838;SDS011;6486;51.034;5.262;2022-08-04T11:53:21;4.07;;;1.05;;
12838;SDS011;6486;51.034;5.262;2022-08-04T11:55:49;3.58;;;0.80;;
12838;SDS011;6486;51.034;5.262;2022-08-04T11:58:17;1.13;;;1.02;;
12838;SDS011;6486;51.034;5.262;2022-08-04T12:00:50;1.42;;;0.73;;
12838;SDS011;6486;51.034;5.262;2022-08-04T12:06:05;1.23;;;0.80;;
12838;SDS011;6486;51.034;5.262;2022-08-04T12:17:07;1.23;;;1.17;;
12838;SDS011;6486;51.034;5.262;2022-08-04T12:19:47;1.17;;;0.80;;
12838;SDS011;6486;51.034;5.262;2022-08-04T12:22:23;4.00;;;0.90;;
12838;SDS011;6486;51.034;5.262;2022-08-04T12:24:57;1.30;;;1.00;;
12838;SDS011;6486;51.034;5.262;2022-08-04T12:27:28;1.30;;;0.70;;
12838;SDS011;6486;51.034;5.262;2022-08-04T12:29:58;1.27;;;1.05;;
12838;SDS011;6486;51.034;5.262;2022-08-04T12:40:28;8.55;;;1.60;;
12838;SDS011;6486;51.034;5.262;2022-08-04T12:45:45;6.32;;;1.27;;
12838;SDS011;6486;51.034;5.262;2022-08-04T12:48:14;6.25;;;1.10;;
12838;SDS011;6486;51.034;5.262;2022-08-04T12:50:45;1.27;;;1.17;;
12838;SDS011;6486;51.034;5.262;2022-08-04T12:53:13;1.63;;;1.27;;
12838;SDS011;6486;51.034;5.262;2022-08-04T12:55:43;3.17;;;1.77;;
12838;SDS011;6486;51.034;5.262;2022-08-04T12:58:15;6.00;;;1.58;;
12838;SDS011;6486;51.034;5.262;2022-08-04T13:00:46;2.90;;;0.98;;
12838;SDS011;6486;51.034;5.262;2022-08-04T13:03:21;4.65;;;1.30;;
12838;SDS011;6486;51.034;5.262;2022-08-04T13:05:54;5.38;;;0.93;;
12838;SDS011;6486;51.034;5.262;2022-08-04T13:08:20;4.78;;;2.65;;
12838;SDS011;6486;51.034;5.262;2022-08-04T13:10:47;3.22;;;1.98;;
12838;SDS011;6486;51.034;5.262;2022-08-04T13:13:19;4.47;;;1.40;;
12838;SDS011;6486;51.034;5.262;2022-08-04T13:15:58;9.30;;;1.45;;
12838;SDS011;6486;51.034;5.262;2022-08-04T13:18:32;4.68;;;1.30;;
12838;SDS011;6486;51.034;5.262;2022-08-04T13:21:11;2.78;;;1.25;;
12838;SDS011;6486;51.034;5.262;2022-08-04T13:23:39;1.10;;;1.10;;
12838;SDS011;6486;51.034;5.262;2022-08-04T13:26:16;3.35;;;1.38;;
12838;SDS011;6486;51.034;5.262;2022-08-04T13:28:43;0.68;;;0.68;;
12838;SDS011;6486;51.034;5.262;2022-08-04T13:31:12;2.65;;;1.33;;
12838;SDS011;6486;51.034;5.262;2022-08-04T13:33:41;2.28;;;1.42;;
12838;SDS011;6486;51.034;5.262;2022-08-04T13:36:09;3.17;;;1.77;;
12838;SDS011;6486;51.034;5.262;2022-08-04T13:38:37;4.15;;;1.35;;
12838;SDS011;6486;51.034;5.262;2022-08-04T13:41:09;1.95;;;1.30;;
12838;SDS011;6486;51.034;5.262;2022-08-04T13:43:42;6.00;;;1.40;;
12838;SDS011;6486;51.034;5.262;2022-08-04T13:46:30;2.50;;;1.27;;
12838;SDS011;6486;51.034;5.262;2022-08-04T13:48:58;1.23;;;1.05;;
12838;SDS011;6486;51.034;5.262;2022-08-04T13:51:26;5.57;;;1.98;;
12838;SDS011;6486;51.034;5.262;2022-08-04T13:53:55;2.00;;;1.63;;
12838;SDS011;6486;51.034;5.262;2022-08-04T13:56:23;1.30;;;0.75;;
12838;SDS011;6486;51.034;5.262;2022-08-04T13:58:55;2.60;;;1.30;;
12838;SDS011;6486;51.034;5.262;2022-08-04T14:01:22;2.30;;;1.17;;
12838;SDS011;6486;51.034;5.262;2022-08-04T14:04:13;4.68;;;2.08;;
12838;SDS011;6486;51.034;5.262;2022-08-04T14:09:37;1.05;;;1.02;;
12838;SDS011;6486;51.034;5.262;2022-08-04T14:12:10;2.38;;;1.75;;
12838;SDS011;6486;51.034;5.262;2022-08-04T14:14:44;5.00;;;1.58;;
12838;SDS011;6486;51.034;5.262;2022-08-04T14:17:12;0.93;;;0.93;;
12838;SDS011;6486;51.034;5.262;2022-08-04T14:24:59;2.80;;;1.77;;
12838;SDS011;6486;51.034;5.262;2022-08-04T14:30:20;3.20;;;1.23;;
12838;SDS011;6486;51.034;5.262;2022-08-04T14:33:05;2.22;;;0.90;;
12838;SDS011;6486;51.034;5.262;2022-08-04T14:35:33;1.10;;;0.80;;
12838;SDS011;6486;51.034;5.262;2022-08-04T14:38:02;2.58;;;1.20;;
12838;SDS011;6486;51.034;5.262;2022-08-04T14:40:32;3.78;;;1.02;;
12838;SDS011;6486;51.034;5.262;2022-08-04T14:42:59;1.42;;;1.13;;
12838;SDS011;6486;51.034;5.262;2022-08-04T14:45:33;0.85;;;0.80;;
12838;SDS011;6486;51.034;5.262;2022-08-04T14:48:01;3.47;;;1.33;;
12838;SDS011;6486;51.034;5.262;2022-08-04T14:50:40;0.82;;;0.82;;
12838;SDS011;6486;51.034;5.262;2022-08-04T14:53:09;1.63;;;0.80;;
12838;SDS011;6486;51.034;5.262;2022-08-04T14:55:44;1.55;;;1.00;;
12838;SDS011;6486;51.034;5.262;2022-08-04T14:58:18;5.03;;;0.93;;
12838;SDS011;6486;51.034;5.262;2022-08-04T15:00:55;2.88;;;0.90;;
12838;SDS011;6486;51.034;5.262;2022-08-04T15:03:23;1.02;;;0.93;;
12838;SDS011;6486;51.034;5.262;2022-08-04T15:05:49;4.30;;;1.30;;
12838;SDS011;6486;51.034;5.262;2022-08-04T15:08:16;1.67;;;1.15;;
12838;SDS011;6486;51.034;5.262;2022-08-04T15:10:42;1.05;;;0.95;;
12838;SDS011;6486;51.034;5.262;2022-08-04T15:13:09;1.33;;;1.02;;
12838;SDS011;6486;51.034;5.262;2022-08-04T15:15:37;2.05;;;1.00;;
12838;SDS011;6486;51.034;5.262;2022-08-04T15:18:10;1.55;;;0.65;;
12838;SDS011;6486;51.034;5.262;2022-08-04T15:20:37;1.85;;;1.00;;
12838;SDS011;6486;51.034;5.262;2022-08-04T15:23:07;3.42;;;0.95;;
12838;SDS011;6486;51.034;5.262;2022-08-04T15:25:52;1.35;;;0.98;;
12838;SDS011;6486;51.034;5.262;2022-08-04T15:28:20;8.20;;;1.23;;
12838;SDS011;6486;51.034;5.262;2022-08-04T15:30:49;2.75;;;1.25;;
12838;SDS011;6486;51.034;5.262;2022-08-04T15:33:16;1.95;;;1.15;;
12838;SDS011;6486;51.034;5.262;2022-08-04T15:35:48;3.45;;;1.50;;
12838;SDS011;6486;51.034;5.262;2022-08-04T15:38:24;2.15;;;1.08;;
12838;SDS011;6486;51.034;5.262;2022-08-04T15:40:58;1.20;;;1.10;;
12838;SDS011;6486;51.034;5.262;2022-08-04T15:46:01;2.55;;;1.38;;
12838;SDS011;6486;51.034;5.262;2022-08-04T15:48:29;1.33;;;0.93;;
12838;SDS011;6486;51.034;5.262;2022-08-04T15:53:32;8.48;;;1.60;;
12838;SDS011;6486;51.034;5.262;2022-08-04T15:56:41;5.38;;;1.95;;
12838;SDS011;6486;51.034;5.262;2022-08-04T15:58:52;1.60;;;1.15;;
12838;SDS011;6486;51.034;5.262;2022-08-04T16:01:19;1.20;;;0.85;;
12838;SDS011;6486;51.034;5.262;2022-08-04T16:03:46;5.55;;;1.55;;
12838;SDS011;6486;51.034;5.262;2022-08-04T16:16:27;5.70;;;1.27;;
12838;SDS011;6486;51.034;5.262;2022-08-04T16:18:54;3.08;;;1.30;;
12838;SDS011;6486;51.034;5.262;2022-08-04T16:21:28;1.85;;;1.08;;
12838;SDS011;6486;51.034;5.262;2022-08-04T16:24:08;2.42;;;1.00;;
12838;SDS011;6486;51.034;5.262;2022-08-04T16:26:53;0.85;;;0.70;;
12838;SDS011;6486;51.034;5.262;2022-08-04T16:29:31;4.68;;;1.45;;
12838;SDS011;6486;51.034;5.262;2022-08-04T16:34:30;2.85;;;1.10;;
12838;SDS011;6486;51.034;5.262;2022-08-04T16:36:59;2.05;;;0.95;;
12838;SDS011;6486;51.034;5.262;2022-08-04T16:39:26;1.65;;;1.55;;
12838;SDS011;6486;51.034;5.262;2022-08-04T16:41:52;1.83;;;0.95;;
12838;SDS011;6486;51.034;5.262;2022-08-04T16:44:28;1.17;;;0.82;;
12838;SDS011;6486;51.034;5.262;2022-08-04T16:47:00;4.82;;;1.30;;
12838;SDS011;6486;51.034;5.262;2022-08-04T16:49:27;1.40;;;0.95;;
12838;SDS011;6486;51.034;5.262;2022-08-04T16:51:54;0.90;;;0.90;;
12838;SDS011;6486;51.034;5.262;2022-08-04T16:54:29;0.85;;;0.85;;
12838;SDS011;6486;51.034;5.262;2022-08-04T16:57:10;1.15;;;1.10;;
12838;SDS011;6486;51.034;5.262;2022-08-04T16:59:35;0.77;;;0.77;;
12838;SDS011;6486;51.034;5.262;2022-08-04T17:02:01;1.95;;;1.25;;
12838;SDS011;6486;51.034;5.262;2022-08-04T17:04:29;1.75;;;0.80;;
12838;SDS011;6486;51.034;5.262;2022-08-04T17:07:00;1.35;;;0.93;;
12838;SDS011;6486;51.034;5.262;2022-08-04T17:09:28;2.00;;;1.10;;
12838;SDS011;6486;51.034;5.262;2022-08-04T17:11:54;0.80;;;0.80;;
12838;SDS011;6486;51.034;5.262;2022-08-04T17:14:22;2.28;;;1.02;;
12838;SDS011;6486;51.034;5.262;2022-08-04T17:16:49;0.80;;;0.80;;
12838;SDS011;6486;51.034;5.262;2022-08-04T17:19:16;0.95;;;0.93;;
12838;SDS011;6486;51.034;5.262;2022-08-04T17:21:42;1.80;;;0.80;;
12838;SDS011;6486;51.034;5.262;2022-08-04T17:24:09;2.78;;;1.13;;
12838;SDS011;6486;51.034;5.262;2022-08-04T17:26:35;1.10;;;1.10;;
12838;SDS011;6486;51.034;5.262;2022-08-04T17:29:03;1.38;;;0.70;;
12838;SDS011;6486;51.034;5.262;2022-08-04T17:31:30;1.33;;;1.15;;
12838;SDS011;6486;51.034;5.262;2022-08-04T17:33:58;1.48;;;1.02;;
12838;SDS011;6486;51.034;5.262;2022-08-04T17:36:30;1.85;;;1.00;;
12838;SDS011;6486;51.034;5.262;2022-08-04T17:38:57;2.65;;;1.10;;
12838;SDS011;6486;51.034;5.262;2022-08-04T17:41:26;9.27;;;0.80;;
12838;SDS011;6486;51.034;5.262;2022-08-04T17:43:56;1.42;;;1.08;;
12838;SDS011;6486;51.034;5.262;2022-08-04T17:46:25;3.38;;;1.15;;
12838;SDS011;6486;51.034;5.262;2022-08-04T17:48:58;1.25;;;1.10;;
12838;SDS011;6486;51.034;5.262;2022-08-04T17:51:33;1.33;;;1.13;;
12838;SDS011;6486;51.034;5.262;2022-08-04T17:54:02;1.33;;;1.02;;
12838;SDS011;6486;51.034;5.262;2022-08-04T17:56:33;1.48;;;1.38;;
12838;SDS011;6486;51.034;5.262;2022-08-04T17:59:14;3.25;;;0.95;;
12838;SDS011;6486;51.034;5.262;2022-08-04T18:01:42;3.15;;;1.40;;
12838;SDS011;6486;51.034;5.262;2022-08-04T18:04:29;1.20;;;1.10;;
12838;SDS011;6486;51.034;5.262;2022-08-04T18:09:36;1.42;;;1.20;;
12838;SDS011;6486;51.034;5.262;2022-08-04T18:12:08;1.40;;;1.08;;
12838;SDS011;6486;51.034;5.262;2022-08-04T18:14:46;1.13;;;1.02;;
12838;SDS011;6486;51.034;5.262;2022-08-04T18:17:14;2.65;;;1.23;;
12838;SDS011;6486;51.034;5.262;2022-08-04T18:19:55;6.82;;;0.98;;
12838;SDS011;6486;51.034;5.262;2022-08-04T18:22:21;2.47;;;1.55;;
12838;SDS011;6486;51.034;5.262;2022-08-04T18:24:46;0.88;;;0.82;;
12838;SDS011;6486;51.034;5.262;2022-08-04T18:27:13;1.17;;;1.08;;
12838;SDS011;6486;51.034;5.262;2022-08-04T18:29:40;2.47;;;1.58;;
12838;SDS011;6486;51.034;5.262;2022-08-04T18:32:06;3.20;;;1.15;;
12838;SDS011;6486;51.034;5.262;2022-08-04T18:34:32;2.45;;;2.08;;
12838;SDS011;6486;51.034;5.262;2022-08-04T18:36:59;1.07;;;0.97;;
12838;SDS011;6486;51.034;5.262;2022-08-04T18:39:25;2.43;;;1.57;;
12838;SDS011;6486;51.034;5.262;2022-08-04T18:41:53;1.03;;;0.97;;
12838;SDS011;6486;51.034;5.262;2022-08-04T18:44:19;3.70;;;1.20;;
12838;SDS011;6486;51.034;5.262;2022-08-04T18:46:45;1.57;;;1.10;;
12838;SDS011;6486;51.034;5.262;2022-08-04T18:49:11;4.40;;;1.03;;
12838;SDS011;6486;51.034;5.262;2022-08-04T18:51:37;2.17;;;1.50;;
12838;SDS011;6486;51.034;5.262;2022-08-04T18:54:03;1.37;;;0.97;;
12838;SDS011;6486;51.034;5.262;2022-08-04T18:56:30;2.03;;;1.20;;
12838;SDS011;6486;51.034;5.262;2022-08-04T18:58:56;3.73;;;1.50;;
12838;SDS011;6486;51.034;5.262;2022-08-04T19:01:23;2.30;;;0.90;;
12838;SDS011;6486;51.034;5.262;2022-08-04T19:03:48;2.70;;;1.10;;
12838;SDS011;6486;51.034;5.262;2022-08-04T19:06:14;5.93;;;1.00;;
12838;SDS011;6486;51.034;5.262;2022-08-04T19:08:40;1.43;;;0.80;;
12838;SDS011;6486;51.034;5.262;2022-08-04T19:11:05;1.13;;;0.80;;
12838;SDS011;6486;51.034;5.262;2022-08-04T19:13:32;2.90;;;1.10;;
12838;SDS011;6486;51.034;5.262;2022-08-04T19:15:58;1.53;;;1.00;;
12838;SDS011;6486;51.034;5.262;2022-08-04T19:18:24;2.93;;;0.70;;
12838;SDS011;6486;51.034;5.262;2022-08-04T19:20:50;1.77;;;1.30;;
12838;SDS011;6486;51.034;5.262;2022-08-04T19:23:16;3.37;;;0.90;;
12838;SDS011;6486;51.034;5.262;2022-08-04T19:25:42;0.73;;;0.67;;
12838;SDS011;6486;51.034;5.262;2022-08-04T19:28:09;1.73;;;0.73;;
12838;SDS011;6486;51.034;5.262;2022-08-04T19:30:34;1.50;;;1.00;;
12838;SDS011;6486;51.034;5.262;2022-08-04T19:33:00;2.40;;;1.47;;
12838;SDS011;6486;51.034;5.262;2022-08-04T19:35:26;3.73;;;1.43;;
12838;SDS011;6486;51.034;5.262;2022-08-04T19:37:51;3.10;;;0.90;;
12838;SDS011;6486;51.034;5.262;2022-08-04T19:40:17;1.10;;;0.93;;
12838;SDS011;6486;51.034;5.262;2022-08-04T19:42:43;0.80;;;0.70;;
12838;SDS011;6486;51.034;5.262;2022-08-04T19:45:09;1.33;;;0.90;;
12838;SDS011;6486;51.034;5.262;2022-08-04T19:47:35;3.83;;;0.90;;
12838;SDS011;6486;51.034;5.262;2022-08-04T19:50:00;1.37;;;1.13;;
12838;SDS011;6486;51.034;5.262;2022-08-04T19:52:27;1.37;;;1.20;;
12838;SDS011;6486;51.034;5.262;2022-08-04T19:54:53;2.10;;;0.70;;
12838;SDS011;6486;51.034;5.262;2022-08-04T19:57:19;16.10;;;1.30;;
12838;SDS011;6486;51.034;5.262;2022-08-04T19:59:44;1.10;;;1.00;;
12838;SDS011;6486;51.034;5.262;2022-08-04T20:02:10;2.03;;;0.93;;
12838;SDS011;6486;51.034;5.262;2022-08-04T20:04:36;0.63;;;0.63;;